Terminal Aerodrome Forecast
Issued by NWS

Home | Current Version | Previous Version | Text Only | Print | Product List | Glossary On
Versions: 1 2 3 4 5 6 7 8 9 10 11 12 13 14 15 16 17 18 19 20 21 22 23 24 25 26
000
FTUS41 KCTP 010330 AAB
TAFLNS
TAF AMD
KLNS 010330Z 0104/0124 00000KT 4SM BR VCSH BKN100
     FM010500 VRB02KT 5SM -SHRA BR BKN050 OVC100
     FM010900 33003KT 4SM BR VCSH OVC030
     FM011400 33006KT P6SM BKN050=

USA.gov is the U.S. government's official web portal to all federal, state and local government web resources and services.